Weather at Hawkins Field (Tarawa) [CLOSED]

Public forecast

Using degrees Celsius for public forecast. Weather courtesy of forecast.io.

Closest aviation weather report (METAR) to Hawkins Field (Tarawa)

Closest report is Bonriki International Airport, 13.1 nm (24.3 km) E.

2024/05/26 11:00 (retrieved 6 minutes ago)

NGTA 261100Z 08007KT 030V110 9999 FEW020 28/26 Q1010

Closest aviation forecast (TAF) to Hawkins Field (Tarawa)

Closest forecast is Bonriki International Airport, 13.1 nm (24.3 km) E.

2024/05/26 06:06 (retrieved 5 hours ago)

TAF NGTA 260505Z 2606/2706 09005KT 9999 FEW020